CFG9PZ LKPR-EDDF
Flight info
| Callsign | CFG9PZ |
|---|---|
| Flight time | 0h 44m |
| Altitude | 24000 |
| Route | BALTU DCT DONAD DCT RAPET T170 GAPLA T178 KERAX KERAX5A |
| Aircraft | A320/M-SDE3FGHIRWY/LB1 |
Departure
| Time | 2026-04-16 09:10 |
|---|---|
| Airport | Václav Havel Airport Prague (LKPR) |
Arrival
| Time | 2026-04-16 09:54 |
|---|---|
| Airport | Frankfurt Main Airport (EDDF) |
| Time | Latitude | Longitude | Altitude | Speed | Heading |
|---|---|---|---|---|---|
| 2026-04-16 08:38 | 50.10675 | 14.26426 | 1171 ft | 0 kts | 214° |
| 2026-04-16 08:59 | 50.10679 | 14.26431 | 1171 ft | 4 kts | 214° |
| 2026-04-16 09:00 | 50.10702 | 14.26455 | 1174 ft | 4 kts | 215° |
| 2026-04-16 09:00 | 50.10722 | 14.26481 | 1169 ft | 4 kts | 232° |
| 2026-04-16 09:00 | 50.10730 | 14.26509 | 1169 ft | 3 kts | 301° |
| 2026-04-16 09:00 | 50.10733 | 14.26505 | 1169 ft | 4 kts | 304° |
| 2026-04-16 09:01 | 50.10763 | 14.26436 | 1172 ft | 4 kts | 304° |
| 2026-04-16 09:01 | 50.10778 | 14.26401 | 1172 ft | 4 kts | 304° |
| 2026-04-16 09:01 | 50.10794 | 14.26367 | 1173 ft | 3 kts | 304° |
| 2026-04-16 09:02 | 50.10796 | 14.26362 | 1173 ft | 0 kts | 304° |
| 2026-04-16 09:03 | 50.10810 | 14.26325 | 1171 ft | 10 kts | 294° |
| 2026-04-16 09:04 | 50.10776 | 14.26225 | 1174 ft | 12 kts | 216° |
| 2026-04-16 09:04 | 50.10701 | 14.26146 | 1171 ft | 14 kts | 214° |
| 2026-04-16 09:04 | 50.10618 | 14.26061 | 1172 ft | 15 kts | 211° |
| 2026-04-16 09:04 | 50.10525 | 14.25980 | 1173 ft | 15 kts | 188° |
| 2026-04-16 09:05 | 50.10449 | 14.26081 | 1171 ft | 15 kts | 127° |
| 2026-04-16 09:05 | 50.10383 | 14.26219 | 1175 ft | 20 kts | 126° |
| 2026-04-16 09:05 | 50.10286 | 14.26420 | 1173 ft | 24 kts | 127° |
| 2026-04-16 09:05 | 50.10183 | 14.26633 | 1178 ft | 25 kts | 127° |
| 2026-04-16 09:06 | 50.10084 | 14.26838 | 1187 ft | 22 kts | 127° |
| 2026-04-16 09:06 | 50.10003 | 14.27006 | 1196 ft | 18 kts | 127° |
| 2026-04-16 09:06 | 50.09925 | 14.27167 | 1201 ft | 18 kts | 127° |
| 2026-04-16 09:06 | 50.09842 | 14.27329 | 1203 ft | 19 kts | 134° |
| 2026-04-16 09:07 | 50.09747 | 14.27475 | 1205 ft | 19 kts | 135° |
| 2026-04-16 09:07 | 50.09651 | 14.27621 | 1208 ft | 19 kts | 136° |
| 2026-04-16 09:07 | 50.09562 | 14.27758 | 1211 ft | 18 kts | 135° |
| 2026-04-16 09:07 | 50.09476 | 14.27891 | 1215 ft | 17 kts | 135° |
| 2026-04-16 09:08 | 50.09391 | 14.28021 | 1215 ft | 18 kts | 135° |
| 2026-04-16 09:08 | 50.09298 | 14.28161 | 1215 ft | 19 kts | 136° |
| 2026-04-16 09:08 | 50.09191 | 14.28281 | 1211 ft | 18 kts | 174° |
| 2026-04-16 09:08 | 50.09104 | 14.28208 | 1211 ft | 15 kts | 234° |
| 2026-04-16 09:09 | 50.09099 | 14.28059 | 1208 ft | 11 kts | 295° |
| 2026-04-16 09:09 | 50.09159 | 14.27929 | 1211 ft | 26 kts | 307° |
| 2026-04-16 09:09 | 50.09414 | 14.27398 | 1210 ft | 96 kts | 307° |
| 2026-04-16 09:09 | 50.09941 | 14.26309 | 1198 ft | 153 kts | 307° |
| 2026-04-16 09:10 | 50.10634 | 14.24884 | 1632 ft | 164 kts | 306° |
| 2026-04-16 09:10 | 50.11336 | 14.23479 | 2422 ft | 165 kts | 304° |
| 2026-04-16 09:10 | 50.12044 | 14.22006 | 2892 ft | 179 kts | 304° |
| 2026-04-16 09:10 | 50.12834 | 14.20354 | 3157 ft | 201 kts | 306° |
| 2026-04-16 09:11 | 50.13707 | 14.18529 | 3526 ft | 220 kts | 306° |
| 2026-04-16 09:11 | 50.14661 | 14.16538 | 4013 ft | 234 kts | 306° |
| 2026-04-16 09:11 | 50.15655 | 14.14469 | 4638 ft | 247 kts | 306° |
| 2026-04-16 09:11 | 50.16712 | 14.12273 | 5343 ft | 257 kts | 306° |
| 2026-04-16 09:12 | 50.17790 | 14.10029 | 6219 ft | 259 kts | 306° |
| 2026-04-16 09:12 | 50.18875 | 14.07769 | 7091 ft | 261 kts | 306° |
| 2026-04-16 09:12 | 50.19967 | 14.05490 | 7937 ft | 263 kts | 306° |
| 2026-04-16 09:12 | 50.21071 | 14.03185 | 8770 ft | 266 kts | 305° |
| 2026-04-16 09:13 | 50.21975 | 14.00698 | 9568 ft | 269 kts | 290° |
| 2026-04-16 09:13 | 50.22371 | 13.97833 | 10337 ft | 273 kts | 273° |
| 2026-04-16 09:13 | 50.22174 | 13.94825 | 11040 ft | 281 kts | 257° |
| 2026-04-16 09:13 | 50.21574 | 13.91784 | 11261 ft | 305 kts | 253° |
| 2026-04-16 09:14 | 50.20887 | 13.88518 | 11433 ft | 328 kts | 253° |
| 2026-04-16 09:14 | 50.20152 | 13.85074 | 11867 ft | 339 kts | 253° |
| 2026-04-16 09:14 | 50.19397 | 13.81559 | 12523 ft | 344 kts | 253° |
| 2026-04-16 09:14 | 50.18634 | 13.78003 | 13217 ft | 347 kts | 253° |
| 2026-04-16 09:15 | 50.17869 | 13.74417 | 13938 ft | 350 kts | 253° |
| 2026-04-16 09:15 | 50.17111 | 13.70848 | 14560 ft | 353 kts | 253° |
| 2026-04-16 09:15 | 50.16330 | 13.67159 | 15203 ft | 355 kts | 253° |
| 2026-04-16 09:15 | 50.15553 | 13.63489 | 15844 ft | 357 kts | 253° |
| 2026-04-16 09:16 | 50.14770 | 13.59799 | 16481 ft | 360 kts | 253° |
| 2026-04-16 09:16 | 50.13982 | 13.56083 | 17091 ft | 362 kts | 253° |
| 2026-04-16 09:16 | 50.13184 | 13.52343 | 17705 ft | 365 kts | 253° |
| 2026-04-16 09:16 | 50.12376 | 13.48581 | 18314 ft | 367 kts | 253° |
| 2026-04-16 09:17 | 50.11559 | 13.44791 | 18867 ft | 370 kts | 253° |
| 2026-04-16 09:17 | 50.10735 | 13.40982 | 19391 ft | 373 kts | 253° |
| 2026-04-16 09:17 | 50.09918 | 13.37197 | 19902 ft | 375 kts | 253° |
| 2026-04-16 09:17 | 50.09171 | 13.33291 | 20414 ft | 377 kts | 259° |
| 2026-04-16 09:18 | 50.08852 | 13.29241 | 20912 ft | 378 kts | 269° |
| 2026-04-16 09:18 | 50.08760 | 13.25137 | 21408 ft | 380 kts | 269° |
| 2026-04-16 09:18 | 50.08662 | 13.21007 | 21910 ft | 383 kts | 269° |
| 2026-04-16 09:18 | 50.08554 | 13.16849 | 22389 ft | 386 kts | 269° |
| 2026-04-16 09:19 | 50.08439 | 13.12663 | 22852 ft | 388 kts | 269° |
| 2026-04-16 09:19 | 50.08318 | 13.08446 | 23305 ft | 391 kts | 269° |
| 2026-04-16 09:19 | 50.08196 | 13.04207 | 23749 ft | 393 kts | 269° |
| 2026-04-16 09:19 | 50.08254 | 12.99945 | 24092 ft | 394 kts | 277° |
| 2026-04-16 09:20 | 50.08783 | 12.95702 | 24188 ft | 396 kts | 285° |
| 2026-04-16 09:20 | 50.09497 | 12.91545 | 24209 ft | 399 kts | 285° |
| 2026-04-16 09:20 | 50.10203 | 12.87424 | 24209 ft | 399 kts | 285° |
| 2026-04-16 09:20 | 50.10914 | 12.83238 | 24209 ft | 400 kts | 285° |
| 2026-04-16 09:21 | 50.11617 | 12.79051 | 24209 ft | 400 kts | 284° |
| 2026-04-16 09:21 | 50.12314 | 12.74862 | 24210 ft | 400 kts | 284° |
| 2026-04-16 09:21 | 50.13009 | 12.70665 | 24208 ft | 400 kts | 284° |
| 2026-04-16 09:21 | 50.13702 | 12.66475 | 24208 ft | 400 kts | 284° |
| 2026-04-16 09:22 | 50.14392 | 12.62277 | 24209 ft | 400 kts | 284° |
| 2026-04-16 09:22 | 50.15083 | 12.58085 | 24208 ft | 399 kts | 284° |
| 2026-04-16 09:22 | 50.15775 | 12.53890 | 24208 ft | 399 kts | 284° |
| 2026-04-16 09:22 | 50.16467 | 12.49696 | 24207 ft | 399 kts | 284° |
| 2026-04-16 09:23 | 50.17157 | 12.45502 | 24202 ft | 399 kts | 284° |
| 2026-04-16 09:23 | 50.17844 | 12.41306 | 24201 ft | 399 kts | 284° |
| 2026-04-16 09:23 | 50.18530 | 12.37110 | 24197 ft | 399 kts | 285° |
| 2026-04-16 09:23 | 50.19380 | 12.32985 | 24196 ft | 399 kts | 289° |
| 2026-04-16 09:24 | 50.20308 | 12.28893 | 24197 ft | 400 kts | 289° |
| 2026-04-16 09:24 | 50.21267 | 12.24824 | 24198 ft | 400 kts | 290° |
| 2026-04-16 09:24 | 50.22240 | 12.20763 | 24196 ft | 400 kts | 290° |
| 2026-04-16 09:24 | 50.23213 | 12.16694 | 24201 ft | 400 kts | 290° |
| 2026-04-16 09:25 | 50.24175 | 12.12622 | 24200 ft | 400 kts | 290° |
| 2026-04-16 09:25 | 50.25126 | 12.08543 | 24215 ft | 400 kts | 289° |
| 2026-04-16 09:25 | 50.26068 | 12.04462 | 24214 ft | 399 kts | 289° |
| 2026-04-16 09:25 | 50.26690 | 12.01760 | 24209 ft | 399 kts | 289° |
| 2026-04-16 09:26 | 50.27626 | 11.97680 | 24208 ft | 399 kts | 289° |
| 2026-04-16 09:26 | 50.28560 | 11.93598 | 24205 ft | 399 kts | 289° |
| 2026-04-16 09:26 | 50.29492 | 11.89512 | 24205 ft | 399 kts | 289° |
| 2026-04-16 09:26 | 50.30421 | 11.85429 | 24209 ft | 399 kts | 289° |
| 2026-04-16 09:27 | 50.31351 | 11.81344 | 24205 ft | 399 kts | 289° |
| 2026-04-16 09:27 | 50.32281 | 11.77258 | 24204 ft | 399 kts | 289° |
| 2026-04-16 09:27 | 50.33211 | 11.73173 | 24203 ft | 399 kts | 289° |
| 2026-04-16 09:27 | 50.34138 | 11.69087 | 24210 ft | 398 kts | 289° |
| 2026-04-16 09:28 | 50.35062 | 11.64998 | 24210 ft | 398 kts | 289° |
| 2026-04-16 09:28 | 50.35986 | 11.60906 | 24209 ft | 398 kts | 289° |
| 2026-04-16 09:28 | 50.36907 | 11.56818 | 24209 ft | 398 kts | 288° |
| 2026-04-16 09:28 | 50.37826 | 11.52725 | 24209 ft | 398 kts | 288° |
| 2026-04-16 09:29 | 50.38744 | 11.48626 | 24211 ft | 398 kts | 288° |
| 2026-04-16 09:29 | 50.39662 | 11.44530 | 24210 ft | 398 kts | 288° |
| 2026-04-16 09:29 | 50.40579 | 11.40433 | 24210 ft | 398 kts | 288° |
| 2026-04-16 09:29 | 50.41496 | 11.36333 | 24204 ft | 398 kts | 288° |
| 2026-04-16 09:30 | 50.42410 | 11.32232 | 24209 ft | 398 kts | 288° |
| 2026-04-16 09:30 | 50.43323 | 11.28135 | 24209 ft | 398 kts | 288° |
| 2026-04-16 09:30 | 50.44235 | 11.24034 | 24210 ft | 398 kts | 288° |
| 2026-04-16 09:30 | 50.45145 | 11.19932 | 24210 ft | 398 kts | 288° |
| 2026-04-16 09:31 | 50.46053 | 11.15829 | 24215 ft | 398 kts | 288° |
| 2026-04-16 09:31 | 50.46960 | 11.11723 | 24217 ft | 398 kts | 288° |
| 2026-04-16 09:31 | 50.47864 | 11.07619 | 24217 ft | 398 kts | 288° |
| 2026-04-16 09:31 | 50.48768 | 11.03512 | 24217 ft | 398 kts | 288° |
| 2026-04-16 09:32 | 50.49668 | 10.99406 | 24221 ft | 398 kts | 288° |
| 2026-04-16 09:32 | 50.50566 | 10.95296 | 24221 ft | 398 kts | 288° |
| 2026-04-16 09:32 | 50.51462 | 10.91191 | 24220 ft | 398 kts | 288° |
| 2026-04-16 09:32 | 50.52311 | 10.87055 | 24218 ft | 397 kts | 282° |
| 2026-04-16 09:33 | 50.52573 | 10.82759 | 24103 ft | 395 kts | 269° |
| 2026-04-16 09:33 | 50.52467 | 10.78458 | 23676 ft | 393 kts | 268° |
| 2026-04-16 09:33 | 50.52322 | 10.74173 | 23220 ft | 392 kts | 267° |
| 2026-04-16 09:33 | 50.52154 | 10.69914 | 22758 ft | 390 kts | 267° |
| 2026-04-16 09:34 | 50.51980 | 10.65676 | 22303 ft | 388 kts | 267° |
| 2026-04-16 09:34 | 50.51808 | 10.61458 | 21859 ft | 386 kts | 267° |
| 2026-04-16 09:34 | 50.51640 | 10.57260 | 21419 ft | 384 kts | 267° |
| 2026-04-16 09:34 | 50.51469 | 10.53081 | 20985 ft | 383 kts | 265° |
| 2026-04-16 09:35 | 50.50876 | 10.49022 | 20540 ft | 382 kts | 252° |
| 2026-04-16 09:35 | 50.49989 | 10.45086 | 20097 ft | 381 kts | 252° |
| 2026-04-16 09:35 | 50.49095 | 10.41178 | 19630 ft | 380 kts | 252° |
| 2026-04-16 09:35 | 50.48200 | 10.37286 | 19150 ft | 378 kts | 251° |
| 2026-04-16 09:36 | 50.47309 | 10.33419 | 18675 ft | 376 kts | 251° |
| 2026-04-16 09:36 | 50.46418 | 10.29564 | 18158 ft | 375 kts | 251° |
| 2026-04-16 09:36 | 50.45531 | 10.25731 | 17624 ft | 373 kts | 251° |
| 2026-04-16 09:36 | 50.44647 | 10.21923 | 17091 ft | 370 kts | 251° |
| 2026-04-16 09:37 | 50.43770 | 10.18147 | 16576 ft | 367 kts | 251° |
| 2026-04-16 09:37 | 50.42903 | 10.14393 | 16052 ft | 365 kts | 251° |
| 2026-04-16 09:37 | 50.42042 | 10.10667 | 15551 ft | 362 kts | 251° |
| 2026-04-16 09:37 | 50.41184 | 10.06961 | 15055 ft | 360 kts | 251° |
| 2026-04-16 09:38 | 50.40330 | 10.03281 | 14565 ft | 358 kts | 251° |
| 2026-04-16 09:38 | 50.39478 | 9.99631 | 14169 ft | 356 kts | 251° |
| 2026-04-16 09:38 | 50.38627 | 9.95999 | 13836 ft | 352 kts | 251° |
| 2026-04-16 09:38 | 50.37790 | 9.92438 | 13485 ft | 345 kts | 251° |
| 2026-04-16 09:39 | 50.36970 | 9.88947 | 13144 ft | 338 kts | 251° |
| 2026-04-16 09:39 | 50.36165 | 9.85531 | 12798 ft | 331 kts | 251° |
| 2026-04-16 09:39 | 50.35374 | 9.82180 | 12458 ft | 325 kts | 251° |
| 2026-04-16 09:39 | 50.34597 | 9.78878 | 12119 ft | 321 kts | 251° |
| 2026-04-16 09:40 | 50.33825 | 9.75605 | 11791 ft | 320 kts | 251° |
| 2026-04-16 09:40 | 50.33061 | 9.72370 | 11498 ft | 314 kts | 251° |
| 2026-04-16 09:40 | 50.32314 | 9.69207 | 11257 ft | 306 kts | 251° |
| 2026-04-16 09:40 | 50.31584 | 9.66117 | 11009 ft | 300 kts | 251° |
| 2026-04-16 09:41 | 50.30866 | 9.63090 | 10761 ft | 294 kts | 251° |
| 2026-04-16 09:41 | 50.30159 | 9.60124 | 10519 ft | 288 kts | 251° |
| 2026-04-16 09:41 | 50.29468 | 9.57221 | 10279 ft | 282 kts | 251° |
| 2026-04-16 09:41 | 50.28789 | 9.54368 | 10030 ft | 279 kts | 251° |
| 2026-04-16 09:42 | 50.28116 | 9.51537 | 9755 ft | 277 kts | 251° |
| 2026-04-16 09:42 | 50.27442 | 9.48720 | 9490 ft | 276 kts | 251° |
| 2026-04-16 09:42 | 50.26779 | 9.45950 | 9233 ft | 275 kts | 251° |
| 2026-04-16 09:42 | 50.26107 | 9.43153 | 8965 ft | 275 kts | 251° |
| 2026-04-16 09:43 | 50.25438 | 9.40362 | 8708 ft | 274 kts | 251° |
| 2026-04-16 09:43 | 50.24771 | 9.37579 | 8450 ft | 273 kts | 251° |
| 2026-04-16 09:43 | 50.24105 | 9.34809 | 8192 ft | 272 kts | 251° |
| 2026-04-16 09:43 | 50.23440 | 9.32055 | 7941 ft | 271 kts | 250° |
| 2026-04-16 09:44 | 50.22773 | 9.29294 | 7692 ft | 271 kts | 250° |
| 2026-04-16 09:44 | 50.22111 | 9.26559 | 7443 ft | 269 kts | 250° |
| 2026-04-16 09:44 | 50.21450 | 9.23828 | 7195 ft | 268 kts | 251° |
| 2026-04-16 09:44 | 50.20795 | 9.21119 | 6958 ft | 266 kts | 251° |
| 2026-04-16 09:45 | 50.20143 | 9.18417 | 6707 ft | 265 kts | 250° |
| 2026-04-16 09:45 | 50.19494 | 9.15736 | 6447 ft | 263 kts | 250° |
| 2026-04-16 09:45 | 50.18848 | 9.13070 | 6187 ft | 262 kts | 250° |
| 2026-04-16 09:45 | 50.18216 | 9.10472 | 5971 ft | 248 kts | 250° |
| 2026-04-16 09:46 | 50.17610 | 9.08056 | 5788 ft | 233 kts | 246° |
| 2026-04-16 09:46 | 50.16969 | 9.05748 | 5619 ft | 231 kts | 248° |
| 2026-04-16 09:46 | 50.16398 | 9.03437 | 5437 ft | 225 kts | 250° |
| 2026-04-16 09:46 | 50.15875 | 9.01202 | 5254 ft | 213 kts | 250° |
| 2026-04-16 09:47 | 50.15387 | 8.99107 | 5104 ft | 197 kts | 250° |
| 2026-04-16 09:47 | 50.14941 | 8.97199 | 5034 ft | 180 kts | 250° |
| 2026-04-16 09:47 | 50.14519 | 8.95399 | 5001 ft | 175 kts | 250° |
| 2026-04-16 09:47 | 50.14102 | 8.93615 | 5007 ft | 175 kts | 250° |
| 2026-04-16 09:48 | 50.13684 | 8.91834 | 5003 ft | 175 kts | 250° |
| 2026-04-16 09:48 | 50.13266 | 8.90054 | 5002 ft | 175 kts | 250° |
| 2026-04-16 09:48 | 50.12848 | 8.88275 | 5004 ft | 175 kts | 250° |
| 2026-04-16 09:48 | 50.12431 | 8.86500 | 4978 ft | 175 kts | 250° |
| 2026-04-16 09:49 | 50.12013 | 8.84723 | 4830 ft | 175 kts | 250° |
| 2026-04-16 09:49 | 50.11595 | 8.82947 | 4592 ft | 174 kts | 250° |
| 2026-04-16 09:49 | 50.11179 | 8.81180 | 4355 ft | 173 kts | 250° |
| 2026-04-16 09:49 | 50.10764 | 8.79423 | 4108 ft | 173 kts | 249° |
| 2026-04-16 09:50 | 50.10351 | 8.77671 | 3863 ft | 172 kts | 250° |
| 2026-04-16 09:50 | 50.09939 | 8.75928 | 3614 ft | 172 kts | 249° |
| 2026-04-16 09:50 | 50.09525 | 8.74179 | 3377 ft | 173 kts | 250° |
| 2026-04-16 09:50 | 50.09112 | 8.72430 | 3122 ft | 171 kts | 250° |
| 2026-04-16 09:51 | 50.08703 | 8.70705 | 2873 ft | 169 kts | 250° |
| 2026-04-16 09:51 | 50.08299 | 8.68999 | 2662 ft | 167 kts | 250° |
| 2026-04-16 09:51 | 50.07895 | 8.67295 | 2396 ft | 168 kts | 249° |
| 2026-04-16 09:51 | 50.07488 | 8.65582 | 2152 ft | 169 kts | 249° |
| 2026-04-16 09:52 | 50.07087 | 8.63892 | 1906 ft | 161 kts | 249° |
| 2026-04-16 09:52 | 50.06717 | 8.62334 | 1690 ft | 146 kts | 249° |
| 2026-04-16 09:52 | 50.06373 | 8.60891 | 1477 ft | 139 kts | 249° |
| 2026-04-16 09:52 | 50.06042 | 8.59502 | 1276 ft | 137 kts | 250° |
| 2026-04-16 09:53 | 50.05712 | 8.58113 | 1087 ft | 137 kts | 248° |
| 2026-04-16 09:53 | 50.05378 | 8.56711 | 873 ft | 139 kts | 248° |
| 2026-04-16 09:53 | 50.05047 | 8.55289 | 680 ft | 140 kts | 248° |
| 2026-04-16 09:53 | 50.04703 | 8.53852 | 485 ft | 142 kts | 245° |
| 2026-04-16 09:54 | 50.04356 | 8.52431 | 346 ft | 134 kts | 247° |
| 2026-04-16 09:54 | 50.04117 | 8.51433 | 330 ft | 49 kts | 249° |
| 2026-04-16 09:54 | 50.04017 | 8.51099 | 329 ft | 28 kts | 235° |
| 2026-04-16 09:54 | 50.03896 | 8.50905 | 325 ft | 18 kts | 220° |
| 2026-04-16 09:55 | 50.03827 | 8.50835 | 329 ft | 7 kts | 188° |
| 2026-04-16 09:55 | 50.03793 | 8.50854 | 331 ft | 13 kts | 141° |
| 2026-04-16 09:55 | 50.03803 | 8.51016 | 333 ft | 21 kts | 69° |
| 2026-04-16 09:55 | 50.03861 | 8.51256 | 334 ft | 25 kts | 70° |
| 2026-04-16 09:56 | 50.03927 | 8.51536 | 333 ft | 28 kts | 70° |
| 2026-04-16 09:56 | 50.03997 | 8.51825 | 333 ft | 29 kts | 69° |
| 2026-04-16 09:56 | 50.04066 | 8.52116 | 341 ft | 28 kts | 70° |
| 2026-04-16 09:56 | 50.04134 | 8.52401 | 348 ft | 28 kts | 69° |
| 2026-04-16 09:57 | 50.04200 | 8.52679 | 353 ft | 27 kts | 70° |
| 2026-04-16 09:57 | 50.04266 | 8.52954 | 353 ft | 27 kts | 69° |
| 2026-04-16 09:57 | 50.04332 | 8.53229 | 363 ft | 25 kts | 69° |
| 2026-04-16 09:57 | 50.04389 | 8.53467 | 374 ft | 21 kts | 74° |
| 2026-04-16 09:58 | 50.04407 | 8.53695 | 375 ft | 22 kts | 84° |
| 2026-04-16 09:58 | 50.04423 | 8.53940 | 375 ft | 24 kts | 84° |
| 2026-04-16 09:58 | 50.04440 | 8.54201 | 375 ft | 24 kts | 84° |
| 2026-04-16 09:58 | 50.04453 | 8.54418 | 371 ft | 20 kts | 90° |
| 2026-04-16 09:59 | 50.04417 | 8.54621 | 366 ft | 18 kts | 119° |
| 2026-04-16 09:59 | 50.04314 | 8.54770 | 357 ft | 20 kts | 155° |
| 2026-04-16 09:59 | 50.04180 | 8.54846 | 358 ft | 22 kts | 160° |
| 2026-04-16 09:59 | 50.04057 | 8.54917 | 355 ft | 18 kts | 159° |
| 2026-04-16 10:00 | 50.04033 | 8.55075 | 360 ft | 18 kts | 69° |
| 2026-04-16 10:00 | 50.04081 | 8.55279 | 353 ft | 22 kts | 70° |
| 2026-04-16 10:00 | 50.04137 | 8.55516 | 352 ft | 24 kts | 69° |
| 2026-04-16 10:01 | 50.04259 | 8.56025 | 359 ft | 26 kts | 70° |
| 2026-04-16 10:01 | 50.04322 | 8.56291 | 358 ft | 27 kts | 69° |
| 2026-04-16 10:01 | 50.04388 | 8.56562 | 362 ft | 26 kts | 70° |
| 2026-04-16 10:01 | 50.04431 | 8.56744 | 362 ft | 15 kts | 69° |
| 2026-04-16 10:02 | 50.04490 | 8.56866 | 359 ft | 14 kts | 22° |
| 2026-04-16 10:02 | 50.04581 | 8.56902 | 361 ft | 14 kts | 13° |
| 2026-04-16 10:02 | 50.04674 | 8.56949 | 359 ft | 13 kts | 23° |
| 2026-04-16 10:02 | 50.04757 | 8.57007 | 362 ft | 12 kts | 25° |
| 2026-04-16 10:03 | 50.04831 | 8.57061 | 363 ft | 11 kts | 25° |
| 2026-04-16 10:03 | 50.04882 | 8.57102 | 358 ft | 7 kts | 42° |
| 2026-04-16 10:03 | 50.04890 | 8.57150 | 359 ft | 2 kts | 131° |
| 2026-04-16 10:03 | 50.04879 | 8.57155 | 359 ft | 0 kts | 161° |